createdAt,value
2023-03-24T00:02:21.935Z,35.92
2023-03-24T00:04:53.300Z,36.50
2023-03-24T00:07:25.251Z,36.33
2023-03-24T00:09:56.120Z,34.25
2023-03-24T00:12:25.294Z,31.17
2023-03-24T00:14:55.293Z,36.97
2023-03-24T00:17:29.511Z,34.45
2023-03-24T00:19:58.742Z,35.60
2023-03-24T00:22:28.518Z,35.03
2023-03-24T00:24:58.978Z,34.08
2023-03-24T00:27:30.453Z,36.50
2023-03-24T00:30:00.346Z,33.97
2023-03-24T00:32:30.454Z,32.85
2023-03-24T00:35:00.438Z,33.78
2023-03-24T00:37:29.726Z,29.58
2023-03-24T00:40:00.312Z,28.70
2023-03-24T00:42:29.395Z,33.47
2023-03-24T00:44:58.494Z,25.23
2023-03-24T00:47:27.878Z,28.23
2023-03-24T00:49:57.864Z,28.33
2023-03-24T00:52:34.145Z,29.70
2023-03-24T00:55:09.034Z,30.07
2023-03-24T00:57:40.772Z,27.33
2023-03-24T01:00:14.381Z,24.90
2023-03-24T01:02:43.654Z,26.45
2023-03-24T01:05:12.741Z,30.63
2023-03-24T01:07:43.366Z,32.28
2023-03-24T01:10:16.267Z,33.67
2023-03-24T01:12:45.377Z,32.75
2023-03-24T01:15:21.289Z,30.58
2023-03-24T01:17:50.719Z,33.88
2023-03-24T01:20:22.939Z,35.45
2023-03-24T01:22:53.301Z,39.65
2023-03-24T01:25:25.888Z,34.28
2023-03-24T01:27:56.076Z,32.08
2023-03-24T01:30:28.588Z,36.83
2023-03-24T01:32:58.343Z,33.63
2023-03-24T01:35:29.571Z,35.83
2023-03-24T01:38:00.957Z,36.05
2023-03-24T01:40:34.830Z,37.20
2023-03-24T01:43:04.713Z,39.67
2023-03-24T01:46:16.327Z,37.33
2023-03-24T01:48:52.481Z,36.63
2023-03-24T01:51:26.269Z,35.92
2023-03-24T01:54:01.247Z,37.20
2023-03-24T01:56:36.667Z,27.95
2023-03-24T01:59:11.159Z,30.05
2023-03-24T02:02:04.343Z,36.08
2023-03-24T02:04:54.197Z,30.25
2023-03-24T02:07:34.330Z,31.27
2023-03-24T02:10:07.729Z,27.45
2023-03-24T02:12:38.340Z,26.33
2023-03-24T02:15:11.550Z,26.33
2023-03-24T02:17:59.095Z,33.92
2023-03-24T02:20:54.527Z,28.73
2023-03-24T02:24:00.644Z,32.78
2023-03-24T02:26:55.869Z,28.15
2023-03-24T02:30:15.420Z,33.05
2023-03-24T02:33:43.254Z,31.52
2023-03-24T02:36:48.504Z,30.65
2023-03-24T02:39:56.227Z,35.15
2023-03-24T02:42:43.449Z,36.30
2023-03-24T02:45:26.399Z,33.38
2023-03-24T02:48:14.772Z,39.47
2023-03-24T02:50:52.293Z,41.55
2023-03-24T02:53:31.361Z,37.67
2023-03-24T02:56:32.230Z,44.08
2023-03-24T02:59:19.038Z,36.75
2023-03-24T03:01:57.736Z,40.47
2023-03-24T03:04:49.932Z,31.50
2023-03-24T03:07:23.225Z,32.92
2023-03-24T03:10:01.395Z,36.65
2023-03-24T03:12:36.872Z,30.75
2023-03-24T03:15:12.277Z,29.30
2023-03-24T03:17:48.400Z,32.97
2023-03-24T03:20:24.416Z,32.38
2023-03-24T03:22:59.818Z,31.02
2023-03-24T03:25:34.598Z,35.45
2023-03-24T03:28:07.780Z,38.75
2023-03-24T03:30:42.222Z,37.22
2023-03-24T03:33:25.946Z,33.15
2023-03-24T03:35:59.998Z,31.77
2023-03-24T03:38:41.409Z,26.00
2023-03-24T03:41:10.704Z,29.10
2023-03-24T03:43:41.247Z,34.13
2023-03-24T03:46:10.558Z,30.02
2023-03-24T03:48:42.152Z,27.08
2023-03-24T03:51:14.159Z,30.55
2023-03-24T03:53:56.469Z,32.72
2023-03-24T03:56:29.380Z,33.28
2023-03-24T03:59:29.739Z,35.45
2023-03-24T04:02:06.055Z,33.65
2023-03-24T04:05:07.026Z,31.88
2023-03-24T04:08:18.192Z,34.20
2023-03-24T04:11:33.569Z,30.60
2023-03-24T04:14:44.858Z,30.60
2023-03-24T04:17:47.133Z,34.85
2023-03-24T04:20:38.351Z,34.20
2023-03-24T04:23:26.448Z,29.42
2023-03-24T04:26:10.547Z,35.97
2023-03-24T04:28:48.622Z,46.08
2023-03-24T04:31:27.759Z,31.52
2023-03-24T04:34:03.684Z,33.55
2023-03-24T04:36:42.840Z,31.48
2023-03-24T04:39:35.016Z,31.40
2023-03-24T04:42:17.820Z,29.15
2023-03-24T04:44:51.422Z,27.30
2023-03-24T04:47:44.109Z,30.33
2023-03-24T04:50:37.300Z,26.00
2023-03-24T04:53:11.344Z,26.60
2023-03-24T04:56:07.502Z,29.58
2023-03-24T04:58:58.759Z,28.25
2023-03-24T05:01:30.397Z,26.23
2023-03-24T05:04:26.359Z,31.92
2023-03-24T05:06:56.835Z,30.27
2023-03-24T05:09:31.496Z,29.00
2023-03-24T05:12:02.165Z,30.90
2023-03-24T05:14:35.588Z,27.95
2023-03-24T05:17:06.889Z,31.15
2023-03-24T05:19:37.491Z,25.98
2023-03-24T05:22:06.577Z,29.48
2023-03-24T05:24:36.040Z,28.45
2023-03-24T05:27:05.099Z,30.75
2023-03-24T05:29:35.311Z,28.35
2023-03-24T05:32:04.713Z,32.25
2023-03-24T05:34:33.958Z,26.33
2023-03-24T05:37:17.730Z,28.42
2023-03-24T05:39:50.956Z,44.78
2023-03-24T05:42:50.426Z,31.65
2023-03-24T05:45:20.601Z,20.63
2023-03-24T05:47:51.407Z,21.15
2023-03-24T05:50:26.005Z,24.42
2023-03-24T05:52:56.432Z,24.95
2023-03-24T05:55:42.544Z,14.77
2023-03-24T05:58:34.587Z,26.08
2023-03-24T06:01:10.279Z,23.52
2023-03-24T06:03:40.906Z,26.25
2023-03-24T06:06:17.085Z,30.08
2023-03-24T06:08:47.800Z,33.25
2023-03-24T06:11:18.475Z,32.05
2023-03-24T06:13:59.120Z,26.05
2023-03-24T06:16:30.204Z,29.42
2023-03-24T06:19:03.871Z,28.63
2023-03-24T06:21:56.636Z,25.50
2023-03-24T06:24:33.112Z,38.00
2023-03-24T06:27:08.945Z,24.52
2023-03-24T06:29:38.809Z,31.30
2023-03-24T06:32:08.772Z,30.63
2023-03-24T06:34:43.910Z,30.00
2023-03-24T06:37:42.903Z,33.15
2023-03-24T06:40:17.642Z,35.63
2023-03-24T06:42:57.570Z,43.78
2023-03-24T06:45:26.833Z,40.17
2023-03-24T06:47:56.869Z,35.22
2023-03-24T06:50:30.833Z,34.00
2023-03-24T06:52:59.979Z,36.70
2023-03-24T06:55:32.450Z,34.38
2023-03-24T06:58:01.614Z,36.85
2023-03-24T07:00:30.796Z,32.97
2023-03-24T07:03:16.206Z,29.92
2023-03-24T07:05:55.562Z,23.77
2023-03-24T07:08:37.201Z,22.17
2023-03-24T07:11:10.162Z,26.10
2023-03-24T07:13:42.680Z,27.17
2023-03-24T07:16:11.660Z,24.75
2023-03-24T07:18:41.967Z,23.15
2023-03-24T07:21:11.658Z,23.20
2023-03-24T07:23:40.583Z,20.50
2023-03-24T07:26:14.992Z,23.85
2023-03-24T07:28:50.311Z,21.63
2023-03-24T07:31:42.398Z,26.48
2023-03-24T07:34:14.683Z,20.73
2023-03-24T07:36:43.837Z,30.17
2023-03-24T07:39:17.216Z,20.23
2023-03-24T07:41:48.286Z,21.63
2023-03-24T07:44:27.405Z,22.85
2023-03-24T07:46:56.459Z,21.30
2023-03-24T07:49:25.985Z,20.70
2023-03-24T07:52:07.268Z,20.52
2023-03-24T07:54:48.324Z,21.55
2023-03-24T07:57:38.324Z,24.23
2023-03-24T08:00:16.042Z,18.98
2023-03-24T08:02:54.077Z,19.65
2023-03-24T08:05:43.524Z,19.80
2023-03-24T08:08:22.499Z,17.70
2023-03-24T08:10:51.589Z,26.15
2023-03-24T08:13:22.565Z,21.08
2023-03-24T08:15:53.221Z,18.58
2023-03-24T08:18:22.713Z,20.48
2023-03-24T08:20:55.469Z,17.67
2023-03-24T08:23:25.015Z,18.75
2023-03-24T08:25:53.979Z,19.65
2023-03-24T08:28:24.646Z,18.77
2023-03-24T08:30:53.563Z,20.80
2023-03-24T08:33:22.657Z,16.38
2023-03-24T08:35:52.813Z,19.70
2023-03-24T08:38:23.130Z,19.90
2023-03-24T08:40:53.209Z,24.02
2023-03-24T08:43:23.311Z,21.85
2023-03-24T08:45:53.830Z,18.98
2023-03-24T08:48:23.066Z,17.63
2023-03-24T08:50:52.398Z,17.90
2023-03-24T08:53:21.917Z,16.55
2023-03-24T08:55:51.484Z,17.05
2023-03-24T08:58:23.039Z,18.15
2023-03-24T09:00:53.338Z,18.27
2023-03-24T09:03:23.139Z,16.75
2023-03-24T09:05:52.288Z,18.73
2023-03-24T09:08:21.383Z,14.82
2023-03-24T09:10:51.416Z,16.38
2023-03-24T09:13:21.378Z,19.17
2023-03-24T09:15:53.541Z,14.07
2023-03-24T09:18:23.534Z,21.77
2023-03-24T09:20:52.874Z,21.58
2023-03-24T09:23:22.693Z,17.17
2023-03-24T09:25:52.074Z,25.48
2023-03-24T09:28:21.921Z,16.17
2023-03-24T09:30:51.498Z,21.92
2023-03-24T09:33:22.062Z,17.45
2023-03-24T09:35:57.788Z,14.63
2023-03-24T09:38:29.859Z,17.30
2023-03-24T09:41:02.867Z,16.80
2023-03-24T09:43:41.956Z,16.27
2023-03-24T09:46:16.520Z,16.42
2023-03-24T09:48:52.174Z,16.42
2023-03-24T09:51:26.627Z,16.55
2023-03-24T09:54:07.549Z,19.15
2023-03-24T09:56:39.523Z,17.52
2023-03-24T09:59:15.114Z,16.30
2023-03-24T10:01:44.154Z,16.15
2023-03-24T10:04:19.409Z,15.00
2023-03-24T10:06:53.437Z,17.88
2023-03-24T10:09:28.653Z,17.55
2023-03-24T10:12:16.313Z,20.80
2023-03-24T10:15:11.502Z,17.38
2023-03-24T10:17:52.547Z,15.05
2023-03-24T10:20:33.937Z,17.58
2023-03-24T10:23:18.335Z,17.27
2023-03-24T10:25:55.862Z,14.32
2023-03-24T10:28:32.694Z,17.30
2023-03-24T10:31:06.961Z,18.00
2023-03-24T10:33:40.328Z,15.18
2023-03-24T10:36:14.988Z,17.10
2023-03-24T10:38:44.089Z,16.92
2023-03-24T10:41:19.094Z,18.55
2023-03-24T10:43:48.919Z,13.80
2023-03-24T10:46:22.301Z,15.00
2023-03-24T10:48:54.526Z,14.98
2023-03-24T10:51:28.942Z,20.75
2023-03-24T10:54:13.285Z,16.42
2023-03-24T10:56:45.222Z,15.70
2023-03-24T10:59:27.477Z,15.65
2023-03-24T11:02:03.957Z,16.08
2023-03-24T11:04:33.751Z,15.85
2023-03-24T11:07:08.730Z,21.17
2023-03-24T11:09:42.650Z,14.50
2023-03-24T11:12:27.535Z,15.85
2023-03-24T11:15:20.980Z,14.57
2023-03-24T11:17:58.267Z,14.07
2023-03-24T11:20:33.181Z,13.35
2023-03-24T11:23:07.331Z,14.80
2023-03-24T11:25:40.510Z,11.90
2023-03-24T11:28:17.805Z,14.32
2023-03-24T11:30:50.874Z,14.98
2023-03-24T11:33:35.506Z,13.07
2023-03-24T11:36:30.381Z,14.40
2023-03-24T11:39:03.508Z,13.63
2023-03-24T11:41:32.529Z,13.43
2023-03-24T11:44:18.983Z,15.68
2023-03-24T11:46:53.345Z,15.05
2023-03-24T11:49:28.530Z,17.08
2023-03-24T11:51:57.714Z,13.63
2023-03-24T11:54:33.262Z,17.08
2023-03-24T11:57:08.377Z,14.23
2023-03-24T11:59:50.446Z,14.05
2023-03-24T12:02:35.586Z,15.80
2023-03-24T12:05:22.550Z,15.32
2023-03-24T12:08:24.857Z,19.53
2023-03-24T12:11:08.651Z,11.95
2023-03-24T12:13:40.538Z,14.85
2023-03-24T12:16:43.352Z,13.50
2023-03-24T12:20:02.294Z,14.07
2023-03-24T12:22:51.033Z,16.25
2023-03-24T12:25:34.517Z,12.52
2023-03-24T12:28:26.001Z,14.70
2023-03-24T12:31:11.464Z,14.30
2023-03-24T12:33:54.736Z,14.23
2023-03-24T12:36:40.531Z,12.82
2023-03-24T12:39:12.632Z,12.93
2023-03-24T12:42:11.367Z,14.05
2023-03-24T12:45:23.884Z,13.52
2023-03-24T12:48:26.740Z,18.00
2023-03-24T12:51:09.096Z,10.10
2023-03-24T12:53:53.632Z,12.60
2023-03-24T12:56:27.909Z,13.80
2023-03-24T12:59:02.480Z,12.40
2023-03-24T13:01:38.593Z,15.00
2023-03-24T13:04:12.235Z,10.93
2023-03-24T13:06:49.909Z,13.82
2023-03-24T13:09:40.147Z,11.52
2023-03-24T13:12:17.264Z,18.70
2023-03-24T13:14:56.415Z,12.32
2023-03-24T13:17:32.126Z,12.80
2023-03-24T13:20:06.370Z,18.23
2023-03-24T13:22:38.788Z,11.27
2023-03-24T13:25:24.801Z,13.07
2023-03-24T13:27:58.101Z,11.77
2023-03-24T13:30:36.254Z,9.98
2023-03-24T13:33:15.477Z,11.32
2023-03-24T13:36:13.760Z,12.80
2023-03-24T13:38:47.621Z,13.50
2023-03-24T13:41:24.147Z,12.55
2023-03-24T13:44:01.299Z,11.90
2023-03-24T13:46:30.947Z,12.18
2023-03-24T13:49:01.409Z,13.52
2023-03-24T13:51:34.083Z,10.57
2023-03-24T13:54:08.314Z,8.95
2023-03-24T13:56:40.673Z,9.85
2023-03-24T13:59:25.780Z,12.25
2023-03-24T14:02:25.125Z,9.80
2023-03-24T14:05:12.378Z,9.95
2023-03-24T14:07:48.585Z,12.35
2023-03-24T14:10:46.642Z,10.68
2023-03-24T14:13:36.758Z,10.35
2023-03-24T14:16:36.228Z,12.10
2023-03-24T14:19:25.590Z,10.50
2023-03-24T14:22:05.304Z,12.27
2023-03-24T14:24:34.631Z,9.20
2023-03-24T14:27:24.541Z,10.00
2023-03-24T14:29:54.356Z,13.63
2023-03-24T14:32:23.762Z,9.10
2023-03-24T14:34:56.994Z,12.25
2023-03-24T14:37:30.118Z,9.52
2023-03-24T14:40:00.995Z,9.38
2023-03-24T14:43:16.582Z,12.77
2023-03-24T14:46:03.045Z,15.80
2023-03-24T14:48:47.419Z,10.35
2023-03-24T14:51:39.643Z,11.07
2023-03-24T14:54:18.236Z,9.85
2023-03-24T14:56:53.687Z,7.60
2023-03-24T14:59:36.730Z,11.07
2023-03-24T15:02:21.609Z,9.20
2023-03-24T15:05:26.378Z,10.40
2023-03-24T15:08:13.496Z,12.10
2023-03-24T15:10:49.736Z,11.90
2023-03-24T15:13:36.101Z,18.20
2023-03-24T15:16:17.837Z,17.77
2023-03-24T15:19:00.656Z,9.95
2023-03-24T15:21:35.288Z,11.25
2023-03-24T15:24:27.196Z,9.98
2023-03-24T15:27:20.402Z,14.88
2023-03-24T15:29:57.675Z,8.85
2023-03-24T15:35:07.129Z,9.60
2023-03-24T15:37:41.418Z,14.02
2023-03-24T15:40:38.612Z,10.88
2023-03-24T15:43:20.591Z,12.07
2023-03-24T15:46:04.732Z,12.68
2023-03-24T15:48:41.162Z,10.88
2023-03-24T15:51:15.182Z,9.70
2023-03-24T15:53:51.028Z,6.70
2023-03-24T15:56:27.193Z,10.85
2023-03-24T15:59:15.185Z,8.70
2023-03-24T16:01:45.516Z,15.05
2023-03-24T16:04:17.632Z,8.35
2023-03-24T16:06:53.445Z,8.20
2023-03-24T16:09:27.230Z,7.50
2023-03-24T16:11:56.430Z,12.32
2023-03-24T16:14:28.800Z,7.75
2023-03-24T16:17:02.311Z,8.07
2023-03-24T16:19:33.837Z,10.63
2023-03-24T16:22:03.064Z,8.05
2023-03-24T16:24:33.053Z,7.07
2023-03-24T16:27:02.138Z,8.38
2023-03-24T16:29:32.838Z,7.93
2023-03-24T16:32:01.866Z,6.20
2023-03-24T16:34:31.689Z,6.88
2023-03-24T16:37:00.714Z,8.45
2023-03-24T16:39:31.072Z,9.02
2023-03-24T16:42:00.306Z,6.90
2023-03-24T16:44:29.419Z,9.45
2023-03-24T16:46:59.973Z,7.63
2023-03-24T16:49:29.187Z,8.85
2023-03-24T16:51:58.202Z,10.98
2023-03-24T16:54:27.389Z,9.48
2023-03-24T16:56:56.505Z,9.90
2023-03-24T16:59:27.093Z,7.47
2023-03-24T17:01:56.572Z,7.47
2023-03-24T17:04:27.449Z,15.55
2023-03-24T17:06:57.055Z,13.25
2023-03-24T17:09:26.797Z,13.73
2023-03-24T17:11:58.490Z,11.82
2023-03-24T17:14:27.485Z,15.00
2023-03-24T17:16:56.728Z,14.15
2023-03-24T17:19:27.167Z,13.98
2023-03-24T17:22:02.230Z,11.20
2023-03-24T17:24:35.887Z,12.77
2023-03-24T17:27:11.282Z,10.85
2023-03-24T17:29:40.470Z,11.63
2023-03-24T17:32:10.332Z,10.43
2023-03-24T17:34:42.879Z,9.80
2023-03-24T17:37:11.980Z,12.57
2023-03-24T17:39:41.233Z,15.07
2023-03-24T17:42:10.422Z,7.00
2023-03-24T17:44:39.447Z,9.30
2023-03-24T17:47:08.602Z,12.02
2023-03-24T17:49:37.841Z,10.60
2023-03-24T17:52:08.524Z,9.07
2023-03-24T17:54:37.826Z,7.57
2023-03-24T17:57:07.511Z,8.73
2023-03-24T17:59:38.928Z,10.55
2023-03-24T18:02:08.805Z,11.23
2023-03-24T18:04:38.272Z,8.00
2023-03-24T18:07:09.617Z,7.55
2023-03-24T18:09:39.172Z,8.50
2023-03-24T18:12:08.935Z,10.27
2023-03-24T18:14:37.994Z,9.70
2023-03-24T18:17:07.292Z,9.48
2023-03-24T18:19:37.660Z,8.82
2023-03-24T18:22:08.285Z,8.75
2023-03-24T18:24:37.804Z,8.88
2023-03-24T18:27:09.943Z,10.75
2023-03-24T18:29:39.784Z,9.27
2023-03-24T18:32:09.006Z,9.60
2023-03-24T18:34:39.054Z,8.30
2023-03-24T18:37:09.651Z,8.52
2023-03-24T18:39:40.625Z,13.30
2023-03-24T18:42:10.266Z,11.30
2023-03-24T18:44:39.377Z,14.10
2023-03-24T18:47:08.403Z,12.00
2023-03-24T18:49:37.545Z,12.60
2023-03-24T18:52:08.445Z,9.80
2023-03-24T18:54:40.507Z,10.98
2023-03-24T18:57:09.978Z,10.20
2023-03-24T18:59:39.484Z,23.23
2023-03-24T19:02:12.229Z,35.63
2023-03-24T19:04:42.257Z,80.72
2023-03-24T19:07:14.538Z,128.85
2023-03-24T19:09:48.401Z,58.42
2023-03-24T19:12:18.031Z,25.73
2023-03-24T19:14:49.849Z,13.40
2023-03-24T19:17:19.384Z,11.93
2023-03-24T19:19:48.413Z,13.50
2023-03-24T19:22:21.712Z,13.15
2023-03-24T19:24:53.098Z,12.73
2023-03-24T19:27:23.269Z,11.55
2023-03-24T19:29:52.399Z,13.02
2023-03-24T19:32:21.475Z,12.88
2023-03-24T19:34:50.490Z,13.13
2023-03-24T19:37:20.071Z,15.38
2023-03-24T19:39:49.084Z,11.95
2023-03-24T19:42:19.755Z,13.45
2023-03-24T19:44:48.798Z,8.93
2023-03-24T19:47:17.837Z,7.82
2023-03-24T19:49:47.185Z,7.78
2023-03-24T19:52:16.999Z,9.75
2023-03-24T19:54:50.057Z,8.25
2023-03-24T19:57:25.890Z,8.20
2023-03-24T19:59:56.455Z,12.00
2023-03-24T20:02:27.251Z,14.55
2023-03-24T20:04:56.648Z,11.32
2023-03-24T20:07:26.814Z,11.27
2023-03-24T20:09:55.896Z,13.18
2023-03-24T20:12:27.841Z,10.43
2023-03-24T20:14:57.858Z,16.73
2023-03-24T20:17:28.849Z,11.90
2023-03-24T20:19:58.013Z,13.77
2023-03-24T20:22:27.162Z,13.70
2023-03-24T20:24:56.465Z,12.07
2023-03-24T20:27:26.995Z,12.02
2023-03-24T20:29:56.107Z,15.15
2023-03-24T20:32:25.329Z,17.05
2023-03-24T20:34:54.961Z,14.98
2023-03-24T20:37:33.143Z,14.10
2023-03-24T20:40:02.395Z,13.45
2023-03-24T20:42:36.312Z,13.35
2023-03-24T20:45:07.596Z,20.08
2023-03-24T20:47:37.585Z,17.45
2023-03-24T20:50:08.616Z,13.38
2023-03-24T20:52:38.004Z,13.63
2023-03-24T20:55:08.941Z,20.92
2023-03-24T20:57:39.627Z,16.70
2023-03-24T21:00:14.416Z,18.73
2023-03-24T21:02:44.488Z,17.48
2023-03-24T21:05:13.602Z,18.63
2023-03-24T21:07:44.030Z,16.88
2023-03-24T21:10:14.515Z,19.13
2023-03-24T21:12:52.808Z,21.10
2023-03-24T21:15:25.361Z,18.98
2023-03-24T21:17:54.834Z,17.60
2023-03-24T21:20:26.963Z,14.40
2023-03-24T21:22:56.331Z,17.88
2023-03-24T21:25:29.065Z,17.05
2023-03-24T21:28:00.792Z,16.63
2023-03-24T21:30:37.141Z,12.88
2023-03-24T21:33:06.663Z,16.52
2023-03-24T21:35:35.757Z,15.32
2023-03-24T21:38:05.699Z,15.75
2023-03-24T21:40:35.368Z,18.55
2023-03-24T21:43:06.771Z,21.02
2023-03-24T21:45:37.261Z,23.00
2023-03-24T21:48:08.148Z,17.65
2023-03-24T21:50:39.042Z,17.90
2023-03-24T21:53:15.386Z,19.23
2023-03-24T21:55:51.844Z,17.30
2023-03-24T21:58:23.275Z,21.70
2023-03-24T22:00:53.127Z,19.60
2023-03-24T22:03:22.868Z,28.88
2023-03-24T22:05:54.583Z,19.15
2023-03-24T22:08:26.736Z,28.80
2023-03-24T22:10:58.079Z,23.50
2023-03-24T22:13:29.787Z,16.30
2023-03-24T22:16:03.460Z,15.43
2023-03-24T22:18:34.766Z,19.48
2023-03-24T22:21:07.061Z,20.20
2023-03-24T22:23:39.478Z,16.10
2023-03-24T22:26:11.315Z,22.30
2023-03-24T22:28:43.093Z,19.45
2023-03-24T22:31:14.006Z,17.95
2023-03-24T22:33:44.167Z,19.70
2023-03-24T22:36:13.648Z,17.08
2023-03-24T22:38:42.660Z,15.20
2023-03-24T22:41:13.924Z,18.27
2023-03-24T22:43:44.425Z,20.65
2023-03-24T22:46:13.658Z,21.00
2023-03-24T22:48:45.338Z,22.65
2023-03-24T22:51:19.137Z,26.55
2023-03-24T22:53:51.124Z,26.60
2023-03-24T22:56:20.343Z,27.88
2023-03-24T22:58:51.677Z,29.83
2023-03-24T23:01:21.122Z,30.25
2023-03-24T23:03:50.244Z,35.28
2023-03-24T23:06:22.284Z,28.48
2023-03-24T23:08:53.476Z,34.40
2023-03-24T23:11:23.037Z,28.20
2023-03-24T23:13:54.163Z,26.58
2023-03-24T23:16:23.341Z,23.50
2023-03-24T23:18:52.771Z,25.85
2023-03-24T23:21:21.789Z,25.83
2023-03-24T23:23:51.170Z,26.40
2023-03-24T23:26:25.606Z,30.95
2023-03-24T23:28:57.338Z,28.73
2023-03-24T23:31:29.151Z,25.27
2023-03-24T23:33:59.294Z,27.65
2023-03-24T23:36:28.743Z,20.80
2023-03-24T23:38:57.890Z,15.63
2023-03-24T23:41:26.948Z,16.42
2023-03-24T23:43:57.600Z,21.02
2023-03-24T23:46:26.696Z,22.50
2023-03-24T23:48:56.016Z,22.55
2023-03-24T23:51:25.032Z,22.30
2023-03-24T23:53:54.104Z,26.60
2023-03-24T23:56:25.166Z,25.70
2023-03-24T23:58:54.198Z,26.77
